Metar Report
Metar
METAR KULS 232256Z AUTO 32012G17KT 10SM CLR 06/M08 A3027 A02 3293
METAR KULS 232156Z AUTO 32017KT 10SM CLR 07/M08 A3025 A02 3292
METAR KULS 232056Z AUTO 32018G25KT 10SM CLR 07/M08 A3024 A02 3291
METAR KULS 231956Z AUTO 34015G22KT 10SM CLR 07/M07 A3024 A02 3290
METAR KULS 231856Z AUTO 32013G21KT 10SM CLR 07/M06 A3025 A02 3289
METAR KULS 231756Z AUTO 34013KT 10SM CLR 06/M07 A3028 A02 3288
METAR KULS 231656Z AUTO 28009KT 10SM CLR 02/M10 A3028 A02 3287
METAR KULS 231556Z AUTO 30007KT 10SM CLR M03/M10 A3025 A02 3286
METAR KULS 231456Z AUTO 28003KT 10SM CLR M09/M13 A3022 A02 3285
METAR KULS 231356Z AUTO 29005KT 10SM CLR M11/M14 A3020 A02 3284
METAR KULS 231256Z AUTO 28009KT 10SM CLR M11/M14 A3020 A02 3283
METAR KULS 231156Z AUTO 28007KT 10SM CLR M11/M14 A3019 A02 3282
METAR KULS 231056Z AUTO 28008KT 10SM CLR M09/M14 A3017 A02 3281
METAR KULS 230956Z AUTO 29010KT 10SM CLR M09/M14 A3016 A02 3280
METAR KULS 230856Z AUTO 29009KT 10SM CLR M09/M13 A3016 A02 3279
METAR KULS 230756Z AUTO 28011KT 10SM CLR M09/M13 A3015 A02 3278
METAR KULS 230656Z AUTO 27009KT 10SM CLR M09/M13 A3014 A02 3277
METAR KULS 230556Z AUTO 27009KT 10SM CLR M08/M12 A3014 A02 3276
METAR KULS 230456Z AUTO 27008KT 10SM CLR M09/M13 A3013 A02 3275
METAR KULS 230356Z AUTO 28008KT 10SM CLR M04/M11 A3012 A02 3274
METAR KULS 230256Z AUTO 28009KT 10SM CLR M04/M12 A3011 A02 3273
METAR KULS 230156Z AUTO 28009KT 10SM CLR M04/M12 A3009 A02 3272
METAR KULS 230056Z AUTO 28009KT 10SM CLR M02/M11 A3007 A02 3271
METAR KULS 222356Z AUTO 31010G16KT 10SM CLR 02/M11 A3005 A02 3270
METAR KULS 222256Z AUTO 31013G21KT 10SM CLR 04/M11 A3002 A02 3269
METAR KULS 222156Z AUTO 31017G27KT 10SM CLR 06/M09 A2999 A02 3268
METAR KULS 222056Z AUTO 32025G31KT 10SM CLR 04/M09 A2997 A02 3267
METAR KULS 221956Z AUTO 32028G37KT 10SM CLR 03/M09 A2995 A02 3266
METAR KULS 221856Z AUTO 31022G35KT 10SM CLR 03/M08 A2996 A02 3265
METAR KULS 221756Z AUTO 33025G33KT 10SM CLR 02/M08 A2997 A02 3264
METAR KULS 221656Z AUTO 31022G33KT 10SM CLR 00/M07 A2998 A02 3263
METAR KULS 221556Z AUTO 30021G30KT 10SM CLR M01/M07 A2994 A02 3262
METAR KULS 221456Z AUTO 31019G30KT 10SM CLR M03/M07 A2990 A02 3261
METAR KULS 221356Z AUTO 31022G28KT 10SM CLR M04/M07 A2987 A02 3260
METAR KULS 221256Z AUTO 31021G33KT 10SM CLR M03/M06 A2984 A02 3259
METAR KULS 221156Z AUTO 30021G29KT 10SM OVC030 M03/M06 A2981 A02 3258
METAR KULS 221056Z AUTO 30024G32KT 10SM SCT032 M03/M06 A2979 A02 3257
METAR KULS 220956Z AUTO 30022G34KT 10SM OVC030 M03/M06 A2978 A02 3256
METAR KULS 220856Z AUTO 30023G33KT 10SM SCT026 M03/M06 A2976 A02 3255
METAR KULS 220756Z AUTO 30025G33KT 10SM SCT026 M03/M06 A2974 A02 3254
METAR KULS 220656Z AUTO 30022G31KT 10SM BKN004 OVC009 M03/M05 A2975 A02 3253
METAR KULS 220556Z AUTO 30024G34KT 10SM SCT005 M03/M05 A2975 A02 3252
METAR KULS 220456Z AUTO 31026G34KT 10SM SCT016 SCT022 M03/M04 A2973 A02 3251
METAR KULS 220356Z AUTO 30022G30KT 7SM UP BKN007 OVC012 M03/M04 A2971 A02 3250
METAR KULS 220256Z AUTO 30022G34KT 7SM SCT003 BKN019 M02/M03 A2971 A02 3249
METAR KULS 220156Z AUTO 30021G27KT 2SM -SN SCT002 SCT006 OVC014 M01/M02 A2969 A02 3248
METAR KULS 220056Z AUTO 29020G24KT 7SM UP SCT002 BKN020 OVC024 M01/M02 A2968 A02 3247
METAR KULS 212356Z AUTO 29015G21KT 5SM UP BKN007 BKN019 OVC035 M01/M02 A2966 A02 3246
METAR KULS 212256Z AUTO 27009KT 7SM -SN SCT005 BKN013 OVC034 M01/M02 A2966 A02 3245
METAR KULS 212156Z AUTO 26009KT 4SM BR SCT004 BKN011 OVC014 M01/M02 A2965 A02 3244
METAR KULS 212056Z AUTO 27007KT 10SM OVC009 00/M02 A2963 A02 3243
METAR KULS 211956Z AUTO 27004KT 3SM BR SCT005 OVC010 M01/M02 A2964 A02 3242
METAR KULS 211856Z AUTO 31005KT 10SM OVC008 M01/M02 A2965 A02 3241
METAR KULS 211756Z AUTO 33007KT 10SM OVC008 00/M02 A2968 A02 3240
METAR KULS 211656Z AUTO 02013KT 10SM OVC008 00/M02 A2966 A02 3239
METAR KULS 211556Z AUTO 33009KT 10SM OVC008 M01/M03 A2972 A02 3238
METAR KULS 211456Z AUTO 32008KT 10SM OVC010 M01/M03 A2973 A02 3237
METAR KULS 211356Z AUTO 32007KT 10SM OVC008 M01/M03 A2974 A02 3236
METAR KULS 211256Z AUTO 34011KT 10SM OVC008 M01/M03 A2971 A02 3235
METAR KULS 211156Z AUTO 34011G14KT 10SM OVC006 M01/M02 A2971 A02 3234
METAR KULS 211056Z AUTO 33012KT 10SM OVC006 M01/M02 A2970 A02 3233
METAR KULS 210956Z AUTO 34012KT 10SM OVC008 M01/M03 A2971 A02 3232
METAR KULS 210856Z AUTO 33012KT 10SM CLR M03/M05 A2970 A02 3231
METAR KULS 210756Z AUTO 33009KT 10SM CLR M03/M07 A2967 A02 3230
METAR KULS 210656Z AUTO 35006KT 10SM CLR M01/M07 A2966 A02 3229
METAR KULS 210556Z AUTO 02005KT 10SM CLR M01/M07 A2966 A02 3228
METAR KULS 210456Z AUTO 03009KT 10SM CLR 00/M07 A2966 A02 3227
METAR KULS 210356Z AUTO 03009KT 10SM CLR 02/M06 A2967 A02 3226
METAR KULS 210256Z AUTO 05009G16KT 10SM CLR 04/M06 A2967 A02 3225
METAR KULS 210156Z AUTO 04009KT 10SM CLR 06/M07 A2967 A02 3224
METAR KULS 210056Z AUTO 07010KT 10SM CLR 09/M06 A2966 A02 3223
METAR KULS 202356Z AUTO 10011KT 10SM CLR 12/M05 A2965 A02 3222
METAR KULS 202256Z AUTO 12012G15KT 10SM CLR 19/M03 A2965 A02 3221
METAR KULS 202156Z AUTO 13010KT 10SM CLR 21/M03 A2964 A02 3220
METAR KULS 202056Z AUTO 12008KT 10SM CLR 21/M02 A2966 A02 3219
METAR KULS 201956Z AUTO 10004KT 10SM CLR 21/M02 A2967 A02 3218
METAR KULS 201856Z AUTO 00000KT 10SM CLR 18/M02 A2969 A02 3217
METAR KULS 201756Z AUTO 00000KT 10SM CLR 13/M04 A2974 A02 3216
METAR KULS 201656Z AUTO 34003KT 10SM CLR 08/M06 A2976 A02 3215
METAR KULS 201556Z AUTO 26004KT 10SM CLR 04/M08 A2976 A02 3214
METAR KULS 201456Z AUTO 27004KT 10SM CLR M01/M09 A2974 A02 3213
METAR KULS 201356Z AUTO 29007KT 10SM CLR M03/M11 A2973 A02 3212
METAR KULS 201256Z AUTO 27007KT 10SM CLR M04/M12 A2973 A02 3211
METAR KULS 201156Z AUTO 32006KT 10SM CLR M01/M11 A2972 A02 3210
METAR KULS 201056Z AUTO 00000KT 10SM CLR M04/M12 A2971 A02 3209
METAR KULS 200956Z AUTO 00000KT 10SM CLR M03/M12 A2970 A02 3208
METAR KULS 200856Z AUTO 29011KT 10SM CLR 02/M09 A2969 A02 3207
METAR KULS 200756Z AUTO 28007KT 10SM CLR M01/M11 A2968 A02 3206
METAR KULS 200656Z AUTO 29007KT 10SM CLR M04/M13 A2969 A02 3205
METAR KULS 200556Z AUTO 27007KT 10SM CLR M01/M12 A2970 A02 3204
METAR KULS 200456Z AUTO 16004KT 10SM CLR 00/M12 A2971 A02 3203
METAR KULS 200356Z AUTO 00000KT 10SM CLR 01/M12 A2971 A02 3202
METAR KULS 200256Z AUTO 17008KT 10SM CLR 04/M11 A2970 A02 3201
METAR KULS 200156Z AUTO 15006KT 10SM CLR 08/M10 A2970 A02 3200
METAR KULS 200056Z AUTO 20007KT 10SM CLR 11/M09 A2969 A02 3199
METAR KULS 192356Z AUTO 15008KT 10SM CLR 14/M08 A2967 A02 3198
METAR KULS 192256Z AUTO 14009KT 10SM CLR 18/M06 A2966 A02 3197
METAR KULS 192156Z AUTO 19010KT 10SM CLR 21/M06 A2966 A02 3196
METAR KULS 192056Z AUTO 22011G15KT 10SM CLR 22/M06 A2966 A02 3195
METAR KULS 191956Z AUTO 19011KT 10SM CLR 21/M06 A2968 A02 3194
METAR KULS 191856Z AUTO 18009KT 10SM CLR 18/M06 A2972 A02 3193
METAR KULS 191756Z AUTO 23005KT 10SM CLR 14/M09 A2978 A02 3192
METAR KULS 191656Z AUTO 20003KT 10SM CLR 07/M10 A2981 A02 3191
METAR KULS 191556Z AUTO 27004KT 10SM CLR 01/M11 A2982 A02 3190
METAR KULS 191456Z AUTO 24003KT 10SM CLR M04/M13 A2982 A02 3189
METAR KULS 191356Z AUTO 24005KT 10SM CLR M09/M16 A2983 A02 3188
METAR KULS 191256Z AUTO 24007KT 10SM CLR M08/M16 A2983 A02 3187
METAR KULS 191156Z AUTO 21005KT 10SM CLR M08/M16 A2984 A02 3186
METAR KULS 191056Z AUTO 21004KT 10SM CLR M08/M17 A2986 A02 3185
METAR KULS 190956Z AUTO 22005KT 10SM CLR M08/M17 A2988 A02 3184
METAR KULS 190856Z AUTO 21005KT 10SM CLR M07/M17 A2989 A02 3183
METAR KULS 190756Z AUTO 20005KT 10SM CLR M07/M17 A2991 A02 3182
METAR KULS 190656Z AUTO 21003KT 10SM CLR M04/M15 A2991 A02 3181
METAR KULS 190556Z AUTO 00000KT 10SM CLR M03/M16 A2994 A02 3180
METAR KULS 190456Z AUTO 22003KT 10SM CLR M03/M16 A2996 A02 3179
METAR KULS 190356Z AUTO 00000KT 10SM CLR M04/M16 A2997 A02 3178
METAR KULS 190256Z AUTO 28006KT 10SM CLR 00/M14 A2998 A02 3177
METAR KULS 190156Z AUTO 16008KT 10SM CLR 02/M14 A2997 A02 3176
METAR KULS 190056Z AUTO 16008KT 10SM CLR 04/M13 A2997 A02 3175
METAR KULS 182356Z AUTO 16008KT 10SM CLR 09/M10 A2997 A02 3174
METAR KULS 182256Z AUTO 16007KT 10SM CLR 13/M10 A2997 A02 3173